createdAt,value
2023-04-09T00:00:03.152Z,45.03
2023-04-09T00:02:42.906Z,48.45
2023-04-09T00:05:14.410Z,47.13
2023-04-09T00:07:44.793Z,46.95
2023-04-09T00:10:15.008Z,46.03
2023-04-09T00:12:47.848Z,46.90
2023-04-09T00:15:30.075Z,47.25
2023-04-09T00:18:02.052Z,46.17
2023-04-09T00:20:32.348Z,46.13
2023-04-09T00:23:02.580Z,45.38
2023-04-09T00:25:32.729Z,46.78
2023-04-09T00:28:05.678Z,48.20
2023-04-09T00:30:36.033Z,48.22
2023-04-09T00:33:06.668Z,48.97
2023-04-09T00:35:36.988Z,48.88
2023-04-09T00:38:07.153Z,51.13
2023-04-09T00:40:37.397Z,50.67
2023-04-09T00:43:10.249Z,52.85
2023-04-09T00:45:41.104Z,49.10
2023-04-09T00:48:12.004Z,50.67
2023-04-09T00:50:42.246Z,50.58
2023-04-09T00:53:15.288Z,49.03
2023-04-09T00:55:46.076Z,52.08
2023-04-09T00:58:19.095Z,52.80
2023-04-09T01:00:49.560Z,54.13
2023-04-09T01:03:20.386Z,53.08
2023-04-09T01:05:57.654Z,53.45
2023-04-09T01:08:36.389Z,53.30
2023-04-09T01:11:13.168Z,50.58
2023-04-09T01:13:52.530Z,52.22
2023-04-09T01:16:26.491Z,50.83
2023-04-09T01:19:02.712Z,51.53
2023-04-09T01:21:36.795Z,50.13
2023-04-09T01:24:22.720Z,50.40
2023-04-09T01:27:03.346Z,52.65
2023-04-09T01:29:58.766Z,49.53
2023-04-09T01:32:32.667Z,49.60
2023-04-09T01:35:04.124Z,48.80
2023-04-09T01:37:35.094Z,48.38
2023-04-09T01:42:36.660Z,46.80
2023-04-09T01:47:41.873Z,46.17
2023-04-09T01:50:13.362Z,47.33
2023-04-09T01:52:44.039Z,44.65
2023-04-09T01:55:14.281Z,46.88
2023-04-09T01:57:44.632Z,46.73
2023-04-09T02:00:18.538Z,47.42
2023-04-09T02:02:57.237Z,46.42
2023-04-09T02:05:32.282Z,49.53
2023-04-09T02:08:06.091Z,47.95
2023-04-09T02:10:38.853Z,46.03
2023-04-09T02:13:12.670Z,46.03
2023-04-09T02:15:46.717Z,47.13
2023-04-09T02:18:27.564Z,47.33
2023-04-09T02:20:58.139Z,49.10
2023-04-09T02:23:28.869Z,51.20
2023-04-09T02:25:59.584Z,49.45
2023-04-09T02:31:02.578Z,48.38
2023-04-09T02:33:33.736Z,49.67
2023-04-09T02:36:03.950Z,49.43
2023-04-09T02:38:34.636Z,49.78
2023-04-09T02:41:05.002Z,48.10
2023-04-09T02:43:35.171Z,48.78
2023-04-09T02:46:08.231Z,49.75
2023-04-09T02:48:39.165Z,48.40
2023-04-09T02:51:10.608Z,50.85
2023-04-09T02:53:41.401Z,51.50
2023-04-09T02:56:11.672Z,51.20
2023-04-09T02:58:41.932Z,50.13
2023-04-09T03:01:14.889Z,47.53
2023-04-09T03:03:46.501Z,49.83
2023-04-09T03:06:17.018Z,50.80
2023-04-09T03:08:47.396Z,51.88
2023-04-09T03:11:17.677Z,50.90
2023-04-09T03:13:47.889Z,48.92
2023-04-09T03:16:20.780Z,50.78
2023-04-09T03:18:51.234Z,47.47
2023-04-09T03:21:21.644Z,50.40
2023-04-09T03:23:53.702Z,52.30
2023-04-09T03:26:24.085Z,50.35
2023-04-09T03:28:54.641Z,52.17
2023-04-09T03:31:27.846Z,49.85
2023-04-09T03:33:58.069Z,50.60
2023-04-09T03:36:29.036Z,49.08
2023-04-09T03:39:03.381Z,50.05
2023-04-09T03:41:40.316Z,53.85
2023-04-09T03:44:14.884Z,51.40
2023-04-09T03:47:26.369Z,51.53
2023-04-09T03:49:57.922Z,51.05
2023-04-09T03:52:31.418Z,50.35
2023-04-09T03:55:07.683Z,51.85
2023-04-09T04:00:12.247Z,48.28
2023-04-09T04:03:11.762Z,50.97
2023-04-09T04:05:57.546Z,52.70
2023-04-09T04:08:28.132Z,51.10
2023-04-09T04:10:58.493Z,51.60
2023-04-09T04:13:28.925Z,49.33
2023-04-09T04:16:00.737Z,50.47
2023-04-09T04:18:34.009Z,48.92
2023-04-09T04:21:04.155Z,49.20
2023-04-09T04:23:37.356Z,51.92
2023-04-09T04:26:20.045Z,52.83
2023-04-09T04:28:50.407Z,55.55
2023-04-09T04:31:35.792Z,54.75
2023-04-09T04:34:08.766Z,55.05
2023-04-09T04:36:40.262Z,54.75
2023-04-09T04:39:11.490Z,54.50
2023-04-09T04:42:04.555Z,54.08
2023-04-09T04:44:35.518Z,55.58
2023-04-09T04:47:16.282Z,55.50
2023-04-09T04:49:49.256Z,54.80
2023-04-09T04:52:20.824Z,53.72
2023-04-09T04:54:54.921Z,54.03
2023-04-09T04:57:27.260Z,55.47
2023-04-09T05:02:30.434Z,57.28
2023-04-09T05:05:24.156Z,57.78
2023-04-09T05:07:57.342Z,58.47
2023-04-09T05:10:27.779Z,61.00
2023-04-09T05:13:01.058Z,59.08
2023-04-09T05:15:37.010Z,57.63
2023-04-09T05:18:08.383Z,59.17
2023-04-09T05:20:42.160Z,37.85
2023-04-09T05:23:13.236Z,34.97
2023-04-09T05:25:46.316Z,34.70
2023-04-09T05:28:27.487Z,35.00
2023-04-09T05:31:13.264Z,48.72
2023-04-09T05:33:49.390Z,36.42
2023-04-09T05:36:27.951Z,36.83
2023-04-09T05:38:58.096Z,39.33
2023-04-09T05:41:28.368Z,42.20
2023-04-09T05:44:18.992Z,45.47
2023-04-09T05:46:51.366Z,47.08
2023-04-09T05:49:27.498Z,48.35
2023-04-09T05:52:02.897Z,46.30
2023-04-09T05:54:35.560Z,47.03
2023-04-09T05:57:07.518Z,47.15
2023-04-09T05:59:40.763Z,50.55
2023-04-09T06:02:11.278Z,52.33
2023-04-09T06:04:41.768Z,50.70
2023-04-09T06:07:15.660Z,49.72
2023-04-09T06:09:47.208Z,50.95
2023-04-09T06:12:17.678Z,54.22
2023-04-09T06:14:47.974Z,56.38
2023-04-09T06:17:18.323Z,56.20
2023-04-09T06:19:48.948Z,63.45
2023-04-09T06:22:21.770Z,62.10
2023-04-09T06:24:52.073Z,65.15
2023-04-09T06:27:23.158Z,64.00
2023-04-09T06:32:23.520Z,67.63
2023-04-09T06:34:53.772Z,70.63
2023-04-09T06:37:26.921Z,69.30
2023-04-09T06:40:00.855Z,68.85
2023-04-09T06:42:31.967Z,69.13
2023-04-09T06:45:13.686Z,67.95
2023-04-09T06:47:44.129Z,69.47
2023-04-09T06:50:14.595Z,64.82
2023-04-09T06:52:47.591Z,68.07
2023-04-09T06:55:17.850Z,64.10
2023-04-09T06:57:48.063Z,66.05
2023-04-09T07:00:18.751Z,63.17
2023-04-09T07:02:49.745Z,55.67
2023-04-09T07:05:20.405Z,50.30
2023-04-09T07:07:53.424Z,48.67
2023-04-09T07:10:23.685Z,48.30
2023-04-09T07:12:53.979Z,49.45
2023-04-09T07:15:24.247Z,47.97
2023-04-09T07:17:55.046Z,45.05
2023-04-09T07:20:25.350Z,39.75
2023-04-09T07:22:59.331Z,41.20
2023-04-09T07:25:32.771Z,40.42
2023-04-09T07:28:03.273Z,38.63
2023-04-09T07:30:33.698Z,41.38
2023-04-09T07:33:04.389Z,40.17
2023-04-09T07:35:35.671Z,39.35
2023-04-09T07:38:08.667Z,36.22
2023-04-09T07:40:39.711Z,37.00
2023-04-09T07:45:39.869Z,47.42
2023-04-09T07:48:10.959Z,56.00
2023-04-09T07:53:14.556Z,54.80
2023-04-09T07:55:44.786Z,56.90
2023-04-09T07:58:15.063Z,66.18
2023-04-09T08:00:45.292Z,61.23
2023-04-09T08:03:16.073Z,65.93
2023-04-09T08:05:46.799Z,61.95
2023-04-09T08:08:20.172Z,62.53
2023-04-09T08:10:50.451Z,60.78
2023-04-09T08:13:20.793Z,59.70
2023-04-09T08:15:51.092Z,59.42
2023-04-09T08:18:21.342Z,58.77
2023-04-09T08:20:51.575Z,57.58
2023-04-09T08:23:24.392Z,56.72
2023-04-09T08:25:54.582Z,57.47
2023-04-09T08:28:24.813Z,60.73
2023-04-09T08:30:54.992Z,51.53
2023-04-09T08:33:25.225Z,53.33
2023-04-09T08:35:55.574Z,53.40
2023-04-09T08:38:28.412Z,51.85
2023-04-09T08:40:58.627Z,47.15
2023-04-09T08:43:47.212Z,47.10
2023-04-09T08:46:22.300Z,41.78
2023-04-09T08:48:54.663Z,39.05
2023-04-09T08:51:28.985Z,38.28
2023-04-09T08:54:04.720Z,29.33
2023-04-09T08:56:36.115Z,30.83
2023-04-09T08:59:06.545Z,32.08
2023-04-09T09:01:37.035Z,31.05
2023-04-09T09:04:08.741Z,31.70
2023-04-09T09:06:41.283Z,31.63
2023-04-09T09:09:16.029Z,32.03
2023-04-09T09:11:48.733Z,31.23
2023-04-09T09:14:20.477Z,33.33
2023-04-09T09:17:08.901Z,32.05
2023-04-09T09:19:39.189Z,32.78
2023-04-09T09:22:12.878Z,30.07
2023-04-09T09:24:52.968Z,29.63
2023-04-09T09:27:37.268Z,30.63
2023-04-09T09:30:09.057Z,30.00
2023-04-09T09:32:40.088Z,29.08
2023-04-09T09:37:41.619Z,30.33
2023-04-09T09:40:30.222Z,30.00
2023-04-09T09:43:00.999Z,29.05
2023-04-09T09:45:32.646Z,30.85
2023-04-09T09:48:04.386Z,32.83
2023-04-09T09:50:36.582Z,31.55
2023-04-09T09:53:09.087Z,29.55
2023-04-09T09:55:44.508Z,29.25
2023-04-09T09:58:20.567Z,30.63
2023-04-09T10:00:51.991Z,32.05
2023-04-09T10:03:26.452Z,24.77
2023-04-09T10:06:00.641Z,27.10
2023-04-09T10:08:34.373Z,28.55
2023-04-09T10:11:09.303Z,27.70
2023-04-09T10:13:43.339Z,27.48
2023-04-09T10:16:14.588Z,27.30
2023-04-09T10:18:45.801Z,25.60
2023-04-09T10:21:29.119Z,28.67
2023-04-09T10:24:00.371Z,29.40
2023-04-09T10:26:36.657Z,28.52
2023-04-09T10:29:09.915Z,30.48
2023-04-09T10:31:51.797Z,28.17
2023-04-09T10:34:24.859Z,26.85
2023-04-09T10:36:58.734Z,26.98
2023-04-09T10:39:30.949Z,30.63
2023-04-09T10:42:05.391Z,28.42
2023-04-09T10:44:38.321Z,28.85
2023-04-09T10:47:08.901Z,33.63
2023-04-09T10:49:41.142Z,35.30
2023-04-09T10:52:14.167Z,37.83
2023-04-09T10:54:47.334Z,33.45
2023-04-09T10:57:26.633Z,32.17
2023-04-09T10:59:58.285Z,36.25
2023-04-09T11:03:04.827Z,39.53
2023-04-09T11:05:43.548Z,27.60
2023-04-09T11:08:15.993Z,26.50
2023-04-09T11:10:49.772Z,28.05
2023-04-09T11:13:24.217Z,25.95
2023-04-09T11:15:54.649Z,24.92
2023-04-09T11:18:26.147Z,25.38
2023-04-09T11:20:58.569Z,24.85
2023-04-09T11:23:32.531Z,29.40
2023-04-09T11:26:03.075Z,27.23
2023-04-09T11:28:38.517Z,23.20
2023-04-09T11:31:09.319Z,26.00
2023-04-09T11:33:42.380Z,27.13
2023-04-09T11:36:12.865Z,26.05
2023-04-09T11:38:43.129Z,25.58
2023-04-09T11:41:14.388Z,28.05
2023-04-09T11:43:47.465Z,31.48
2023-04-09T11:46:20.393Z,28.40
2023-04-09T11:48:52.033Z,28.35
2023-04-09T11:51:22.917Z,29.13
2023-04-09T11:53:53.429Z,28.25
2023-04-09T11:56:23.841Z,27.52
2023-04-09T11:58:58.144Z,28.38
2023-04-09T12:01:33.584Z,26.75
2023-04-09T12:04:05.875Z,28.75
2023-04-09T12:06:37.026Z,29.42
2023-04-09T12:09:07.384Z,27.92
2023-04-09T12:11:42.324Z,26.70
2023-04-09T12:14:19.776Z,24.45
2023-04-09T12:16:54.796Z,34.08
2023-04-09T12:19:28.671Z,26.20
2023-04-09T12:21:59.797Z,23.10
2023-04-09T12:27:00.296Z,26.67
2023-04-09T12:29:33.853Z,26.35
2023-04-09T12:32:04.254Z,26.40
2023-04-09T12:34:34.612Z,25.50
2023-04-09T12:37:05.238Z,29.37
2023-04-09T12:39:35.686Z,27.15
2023-04-09T12:42:05.936Z,28.05
2023-04-09T12:44:39.439Z,26.17
2023-04-09T12:47:09.685Z,24.95
2023-04-09T12:49:42.190Z,28.27
2023-04-09T12:52:12.784Z,24.92
2023-04-09T12:54:43.119Z,27.67
2023-04-09T12:57:13.289Z,26.40
2023-04-09T12:59:46.112Z,24.93
2023-04-09T13:02:16.688Z,24.77
2023-04-09T13:04:47.424Z,22.75
2023-04-09T13:07:19.433Z,25.65
2023-04-09T13:09:50.724Z,27.80
2023-04-09T13:12:21.792Z,23.48
2023-04-09T13:17:27.518Z,23.65
2023-04-09T13:19:57.784Z,24.42
2023-04-09T13:22:27.958Z,22.27
2023-04-09T13:24:58.065Z,21.00
2023-04-09T13:27:28.290Z,22.27
2023-04-09T13:30:01.307Z,20.80
2023-04-09T13:32:31.489Z,20.85
2023-04-09T13:35:01.664Z,21.93
2023-04-09T13:37:32.079Z,25.30
2023-04-09T13:40:02.221Z,24.45
2023-04-09T13:42:32.801Z,23.77
2023-04-09T13:45:05.691Z,26.77
2023-04-09T13:47:36.073Z,19.85
2023-04-09T13:50:06.671Z,22.58
2023-04-09T13:52:36.849Z,21.85
2023-04-09T13:55:07.904Z,21.90
2023-04-09T14:00:14.157Z,20.65
2023-04-09T14:02:44.918Z,20.27
2023-04-09T14:05:15.229Z,20.38
2023-04-09T14:07:45.450Z,21.00
2023-04-09T14:10:16.232Z,20.80
2023-04-09T14:12:46.485Z,20.23
2023-04-09T14:15:19.345Z,19.73
2023-04-09T14:17:49.527Z,21.40
2023-04-09T14:20:21.409Z,21.07
2023-04-09T14:22:51.948Z,23.33
2023-04-09T14:25:22.109Z,19.33
2023-04-09T14:27:52.398Z,21.20
2023-04-09T14:30:26.050Z,21.13
2023-04-09T14:32:56.405Z,20.30
2023-04-09T14:35:27.050Z,20.05
2023-04-09T14:37:57.513Z,21.90
2023-04-09T14:40:27.796Z,21.88
2023-04-09T14:42:57.980Z,21.30
2023-04-09T14:45:31.094Z,20.43
2023-04-09T14:48:01.392Z,22.17
2023-04-09T14:50:34.214Z,26.30
2023-04-09T14:53:04.405Z,27.42
2023-04-09T14:55:34.672Z,24.87
2023-04-09T14:58:07.775Z,27.17
2023-04-09T15:00:41.553Z,26.40
2023-04-09T15:03:12.363Z,26.42
2023-04-09T15:08:12.796Z,25.25
2023-04-09T15:10:43.246Z,26.23
2023-04-09T15:13:13.611Z,26.95
2023-04-09T15:15:46.845Z,28.10
2023-04-09T15:18:17.041Z,27.95
2023-04-09T15:20:47.576Z,27.13
2023-04-09T15:23:17.793Z,28.17
2023-04-09T15:25:48.009Z,25.73
2023-04-09T15:28:18.203Z,27.93
2023-04-09T15:30:50.986Z,27.58
2023-04-09T15:33:21.376Z,28.83
2023-04-09T15:35:51.640Z,28.38
2023-04-09T15:38:22.346Z,27.92
2023-04-09T15:40:52.517Z,28.02
2023-04-09T15:43:23.546Z,29.83
2023-04-09T15:48:26.758Z,28.83
2023-04-09T15:50:57.042Z,28.30
2023-04-09T15:53:29.573Z,28.92
2023-04-09T15:56:00.082Z,30.98
2023-04-09T15:58:30.324Z,32.40
2023-04-09T16:01:03.167Z,31.73
2023-04-09T16:03:37.342Z,29.20
2023-04-09T16:06:08.915Z,40.28
2023-04-09T16:08:42.973Z,33.72
2023-04-09T16:11:13.724Z,37.70
2023-04-09T16:13:43.961Z,32.08
2023-04-09T16:16:16.728Z,31.40
2023-04-09T16:18:47.301Z,27.67
2023-04-09T16:21:17.765Z,31.17
2023-04-09T16:23:48.016Z,24.40
2023-04-09T16:26:18.456Z,23.98
2023-04-09T16:28:48.698Z,21.23
2023-04-09T16:31:21.549Z,21.17
2023-04-09T16:33:51.921Z,20.52
2023-04-09T16:36:22.322Z,20.60
2023-04-09T16:38:52.910Z,20.80
2023-04-09T16:41:23.236Z,21.23
2023-04-09T16:43:53.687Z,21.20
2023-04-09T16:46:26.619Z,21.83
2023-04-09T16:48:56.885Z,21.23
2023-04-09T16:51:27.362Z,21.40
2023-04-09T16:53:57.678Z,23.15
2023-04-09T16:56:28.250Z,19.83
2023-04-09T16:58:58.540Z,20.48
2023-04-09T17:01:31.750Z,21.83
2023-04-09T17:04:03.364Z,24.83
2023-04-09T17:06:33.709Z,25.02
2023-04-09T17:09:05.589Z,26.27
2023-04-09T17:11:35.826Z,23.92
2023-04-09T17:14:06.210Z,24.27
2023-04-09T17:16:39.441Z,24.33
2023-04-09T17:19:09.723Z,24.40
2023-04-09T17:21:39.961Z,27.25
2023-04-09T17:24:10.633Z,27.02
2023-04-09T17:26:40.933Z,26.85
2023-04-09T17:29:11.227Z,27.23
2023-04-09T17:31:44.224Z,42.03
2023-04-09T17:34:16.557Z,41.25
2023-04-09T17:36:49.785Z,35.90
2023-04-09T17:39:20.016Z,35.88
2023-04-09T17:41:50.237Z,35.13
2023-04-09T17:44:21.013Z,38.42
2023-04-09T17:46:54.275Z,35.00
2023-04-09T17:49:24.777Z,36.88
2023-04-09T17:51:55.130Z,37.78
2023-04-09T17:54:25.408Z,37.03
2023-04-09T17:56:57.225Z,37.30
2023-04-09T17:59:27.568Z,37.63
2023-04-09T18:02:00.686Z,38.42
2023-04-09T18:04:34.364Z,37.75
2023-04-09T18:07:04.996Z,38.40
2023-04-09T18:09:35.312Z,35.88
2023-04-09T18:12:05.636Z,37.80
2023-04-09T18:14:35.823Z,36.90
2023-04-09T18:17:08.611Z,38.77
2023-04-09T18:19:41.555Z,27.15
2023-04-09T18:22:11.901Z,37.80
2023-04-09T18:24:42.324Z,37.35
2023-04-09T18:27:12.578Z,39.80
2023-04-09T18:29:42.780Z,42.92
2023-04-09T18:32:15.693Z,44.30
2023-04-09T18:34:47.302Z,42.28
2023-04-09T18:37:17.640Z,45.92
2023-04-09T18:39:48.189Z,45.47
2023-04-09T18:42:18.366Z,51.55
2023-04-09T18:44:49.084Z,49.87
2023-04-09T18:47:21.944Z,47.40
2023-04-09T18:49:52.242Z,46.63
2023-04-09T18:52:22.602Z,45.93
2023-04-09T18:54:53.035Z,46.05
2023-04-09T18:57:23.395Z,45.85
2023-04-09T18:59:54.098Z,44.38
2023-04-09T19:02:28.385Z,44.47
2023-04-09T19:05:02.281Z,44.90
2023-04-09T19:07:33.980Z,43.20
2023-04-09T19:10:04.282Z,46.78
2023-04-09T19:12:34.611Z,46.10
2023-04-09T19:15:06.479Z,41.10
2023-04-09T19:17:39.447Z,39.50
2023-04-09T19:20:11.178Z,40.92
2023-04-09T19:22:41.635Z,41.55
2023-04-09T19:25:12.880Z,41.20
2023-04-09T19:27:43.418Z,42.58
2023-04-09T19:30:14.277Z,43.17
2023-04-09T19:32:48.954Z,42.15
2023-04-09T19:35:21.507Z,44.92
2023-04-09T19:37:54.300Z,41.10
2023-04-09T19:40:24.641Z,44.58
2023-04-09T19:42:56.300Z,43.05
2023-04-09T19:45:26.538Z,42.90
2023-04-09T19:47:59.685Z,43.40
2023-04-09T19:50:30.042Z,40.65
2023-04-09T19:53:00.173Z,41.10
2023-04-09T19:55:30.527Z,41.93
2023-04-09T19:58:00.922Z,40.75
2023-04-09T20:00:31.618Z,40.40
2023-04-09T20:03:06.124Z,40.08
2023-04-09T20:05:36.648Z,40.90
2023-04-09T20:08:12.255Z,38.17
2023-04-09T20:10:46.632Z,40.50
2023-04-09T20:13:16.964Z,40.42
2023-04-09T20:15:47.132Z,40.63
2023-04-09T20:18:20.000Z,43.30
2023-04-09T20:20:51.052Z,44.85
2023-04-09T20:26:01.352Z,43.50
2023-04-09T20:28:31.612Z,42.38
2023-04-09T20:31:02.495Z,43.17
2023-04-09T20:33:35.886Z,41.50
2023-04-09T20:36:06.192Z,43.08
2023-04-09T20:38:36.584Z,44.30
2023-04-09T20:41:07.377Z,46.17
2023-04-09T20:43:38.791Z,43.17
2023-04-09T20:46:09.085Z,42.35
2023-04-09T20:48:42.005Z,43.97
2023-04-09T20:51:13.335Z,41.97
2023-04-09T20:53:44.053Z,42.92
2023-04-09T20:56:14.879Z,42.88
2023-04-09T20:58:45.646Z,45.45
2023-04-09T21:01:18.533Z,47.53
2023-04-09T21:03:52.973Z,44.60
2023-04-09T21:06:23.365Z,41.63
2023-04-09T21:08:56.931Z,44.97
2023-04-09T21:11:28.147Z,44.67
2023-04-09T21:13:58.483Z,45.33
2023-04-09T21:16:30.172Z,46.25
2023-04-09T21:19:07.394Z,43.95
2023-04-09T21:21:38.160Z,42.58
2023-04-09T21:24:08.597Z,43.75
2023-04-09T21:29:15.989Z,42.35
2023-04-09T21:31:46.222Z,41.67
2023-04-09T21:34:19.220Z,42.38
2023-04-09T21:36:49.491Z,44.95
2023-04-09T21:39:19.824Z,44.40
2023-04-09T21:41:50.151Z,46.10
2023-04-09T21:44:21.590Z,46.60
2023-04-09T21:46:52.570Z,48.00
2023-04-09T21:49:25.337Z,48.50
2023-04-09T21:51:57.011Z,45.47
2023-04-09T21:54:27.195Z,43.72
2023-04-09T21:56:57.393Z,45.40
2023-04-09T21:59:27.732Z,45.00
2023-04-09T22:01:58.114Z,44.50
2023-04-09T22:04:31.018Z,45.15
2023-04-09T22:07:01.496Z,45.70
2023-04-09T22:09:31.945Z,45.70
2023-04-09T22:12:03.018Z,44.78
2023-04-09T22:14:33.861Z,43.55
2023-04-09T22:17:04.918Z,44.28
2023-04-09T22:22:09.350Z,45.70
2023-04-09T22:24:39.644Z,46.33
2023-04-09T22:27:10.284Z,44.72
2023-04-09T22:29:40.746Z,43.92
2023-04-09T22:32:12.366Z,42.92
2023-04-09T22:34:45.176Z,43.88
2023-04-09T22:37:17.364Z,44.33
2023-04-09T22:39:47.613Z,43.92
2023-04-09T22:42:17.863Z,46.67
2023-04-09T22:44:48.116Z,46.50
2023-04-09T22:47:18.394Z,45.78
2023-04-09T22:49:55.097Z,46.63
2023-04-09T22:52:25.547Z,47.65
2023-04-09T22:54:55.861Z,46.47
2023-04-09T22:57:26.031Z,47.90
2023-04-09T22:59:56.711Z,47.60
2023-04-09T23:02:27.536Z,45.95
2023-04-09T23:07:32.616Z,47.05
2023-04-09T23:10:03.191Z,47.23
2023-04-09T23:12:33.418Z,45.80
2023-04-09T23:15:07.362Z,47.13
2023-04-09T23:17:37.943Z,46.80
2023-04-09T23:20:13.961Z,45.67
2023-04-09T23:22:44.226Z,46.40
2023-04-09T23:25:14.991Z,47.15
2023-04-09T23:27:46.843Z,46.17
2023-04-09T23:30:20.619Z,45.10
2023-04-09T23:32:53.273Z,46.20
2023-04-09T23:35:27.063Z,46.03
2023-04-09T23:37:57.373Z,45.20
2023-04-09T23:40:27.729Z,47.10
2023-04-09T23:42:58.177Z,47.75
2023-04-09T23:45:28.426Z,47.65
2023-04-09T23:47:58.706Z,47.20
2023-04-09T23:50:31.773Z,47.63
2023-04-09T23:53:04.045Z,44.92
2023-04-09T23:55:38.358Z,48.53
2023-04-09T23:58:08.689Z,47.75
